sensor_id;sensor_type;location;lat;lon;timestamp;temperature;humidity
52621;DHT22;38515;53.160;6.990;2022-11-09T00:00:53;11.30;99.90
52621;DHT22;38515;53.160;6.990;2022-11-09T00:03:18;11.30;99.90
52621;DHT22;38515;53.160;6.990;2022-11-09T00:05:54;11.50;99.90
52621;DHT22;38515;53.160;6.990;2022-11-09T00:08:20;11.70;99.90
52621;DHT22;38515;53.160;6.990;2022-11-09T00:10:46;11.80;99.90
52621;DHT22;38515;53.160;6.990;2022-11-09T00:13:12;12.00;99.90
52621;DHT22;38515;53.160;6.990;2022-11-09T00:15:41;12.10;99.90
52621;DHT22;38515;53.160;6.990;2022-11-09T00:18:07;12.20;99.90
52621;DHT22;38515;53.160;6.990;2022-11-09T00:20:33;12.30;99.90
52621;DHT22;38515;53.160;6.990;2022-11-09T00:22:58;12.20;99.90
52621;DHT22;38515;53.160;6.990;2022-11-09T00:25:24;12.20;99.90
52621;DHT22;38515;53.160;6.990;2022-11-09T00:27:50;12.20;99.90
52621;DHT22;38515;53.160;6.990;2022-11-09T00:30:17;12.20;99.90
52621;DHT22;38515;53.160;6.990;2022-11-09T00:32:43;12.20;99.90
52621;DHT22;38515;53.160;6.990;2022-11-09T00:35:09;12.00;99.90
52621;DHT22;38515;53.160;6.990;2022-11-09T00:37:35;12.00;99.90
52621;DHT22;38515;53.160;6.990;2022-11-09T00:40:01;11.90;99.90
52621;DHT22;38515;53.160;6.990;2022-11-09T00:42:26;11.90;99.90
52621;DHT22;38515;53.160;6.990;2022-11-09T00:44:52;11.80;99.90
52621;DHT22;38515;53.160;6.990;2022-11-09T00:47:18;11.70;99.90
52621;DHT22;38515;53.160;6.990;2022-11-09T00:49:44;11.70;99.90
52621;DHT22;38515;53.160;6.990;2022-11-09T00:52:10;11.60;99.90
52621;DHT22;38515;53.160;6.990;2022-11-09T00:54:35;11.60;99.90
52621;DHT22;38515;53.160;6.990;2022-11-09T00:57:01;11.50;99.90
52621;DHT22;38515;53.160;6.990;2022-11-09T00:59:27;11.50;99.90
52621;DHT22;38515;53.160;6.990;2022-11-09T01:01:53;11.50;99.90
52621;DHT22;38515;53.160;6.990;2022-11-09T01:04:19;11.40;99.90
52621;DHT22;38515;53.160;6.990;2022-11-09T01:06:45;11.40;99.90
52621;DHT22;38515;53.160;6.990;2022-11-09T01:09:11;11.30;99.90
52621;DHT22;38515;53.160;6.990;2022-11-09T01:11:40;11.30;99.90
52621;DHT22;38515;53.160;6.990;2022-11-09T01:14:06;11.30;99.90
52621;DHT22;38515;53.160;6.990;2022-11-09T01:16:31;11.20;99.90
52621;DHT22;38515;53.160;6.990;2022-11-09T01:18:58;11.20;99.90
52621;DHT22;38515;53.160;6.990;2022-11-09T01:21:25;11.20;99.90
52621;DHT22;38515;53.160;6.990;2022-11-09T01:23:51;11.20;99.90
52621;DHT22;38515;53.160;6.990;2022-11-09T01:26:17;11.20;99.90
52621;DHT22;38515;53.160;6.990;2022-11-09T01:28:43;11.20;99.90
52621;DHT22;38515;53.160;6.990;2022-11-09T01:31:15;11.20;99.90
52621;DHT22;38515;53.160;6.990;2022-11-09T01:33:42;11.20;99.90
52621;DHT22;38515;53.160;6.990;2022-11-09T01:36:11;11.30;99.90
52621;DHT22;38515;53.160;6.990;2022-11-09T01:38:38;11.30;99.90
52621;DHT22;38515;53.160;6.990;2022-11-09T01:41:05;11.30;99.90
52621;DHT22;38515;53.160;6.990;2022-11-09T01:43:32;11.30;99.90
52621;DHT22;38515;53.160;6.990;2022-11-09T01:46:08;11.30;99.90
52621;DHT22;38515;53.160;6.990;2022-11-09T01:48:41;11.20;99.90
52621;DHT22;38515;53.160;6.990;2022-11-09T01:53:50;11.20;99.90
52621;DHT22;38515;53.160;6.990;2022-11-09T01:56:17;11.10;99.90
52621;DHT22;38515;53.160;6.990;2022-11-09T01:58:45;11.10;99.90
52621;DHT22;38515;53.160;6.990;2022-11-09T02:01:13;11.10;99.90
52621;DHT22;38515;53.160;6.990;2022-11-09T02:03:51;11.10;99.90
52621;DHT22;38515;53.160;6.990;2022-11-09T02:06:19;11.10;99.90
52621;DHT22;38515;53.160;6.990;2022-11-09T02:08:47;11.00;99.90
52621;DHT22;38515;53.160;6.990;2022-11-09T02:11:16;11.00;99.90
52621;DHT22;38515;53.160;6.990;2022-11-09T02:13:47;11.00;99.90
52621;DHT22;38515;53.160;6.990;2022-11-09T02:16:14;11.10;99.90
52621;DHT22;38515;53.160;6.990;2022-11-09T02:18:47;11.00;99.90
52621;DHT22;38515;53.160;6.990;2022-11-09T02:21:15;11.00;99.90
52621;DHT22;38515;53.160;6.990;2022-11-09T02:23:41;11.00;99.90
52621;DHT22;38515;53.160;6.990;2022-11-09T02:26:10;11.00;99.90
52621;DHT22;38515;53.160;6.990;2022-11-09T02:28:38;11.00;99.90
52621;DHT22;38515;53.160;6.990;2022-11-09T02:31:08;11.00;99.90
52621;DHT22;38515;53.160;6.990;2022-11-09T02:36:16;11.10;99.90
52621;DHT22;38515;53.160;6.990;2022-11-09T02:38:41;11.10;99.90
52621;DHT22;38515;53.160;6.990;2022-11-09T02:41:08;11.00;99.90
52621;DHT22;38515;53.160;6.990;2022-11-09T02:43:36;11.00;99.90
52621;DHT22;38515;53.160;6.990;2022-11-09T02:46:02;11.00;99.90
52621;DHT22;38515;53.160;6.990;2022-11-09T02:48:28;10.90;99.90
52621;DHT22;38515;53.160;6.990;2022-11-09T02:50:54;10.90;99.90
52621;DHT22;38515;53.160;6.990;2022-11-09T02:53:20;10.90;99.90
52621;DHT22;38515;53.160;6.990;2022-11-09T02:55:45;10.90;99.90
52621;DHT22;38515;53.160;6.990;2022-11-09T02:58:11;10.90;99.90
52621;DHT22;38515;53.160;6.990;2022-11-09T03:00:37;10.90;99.90
52621;DHT22;38515;53.160;6.990;2022-11-09T03:03:03;10.90;99.90
52621;DHT22;38515;53.160;6.990;2022-11-09T03:05:29;10.90;99.90
52621;DHT22;38515;53.160;6.990;2022-11-09T03:07:55;10.90;99.90
52621;DHT22;38515;53.160;6.990;2022-11-09T03:10:22;10.80;99.90
52621;DHT22;38515;53.160;6.990;2022-11-09T03:12:47;10.80;99.90
52621;DHT22;38515;53.160;6.990;2022-11-09T03:15:13;10.80;99.90
52621;DHT22;38515;53.160;6.990;2022-11-09T03:17:39;10.80;99.90
52621;DHT22;38515;53.160;6.990;2022-11-09T03:20:05;10.80;99.90
52621;DHT22;38515;53.160;6.990;2022-11-09T03:22:31;10.70;99.90
52621;DHT22;38515;53.160;6.990;2022-11-09T03:24:58;10.70;99.90
52621;DHT22;38515;53.160;6.990;2022-11-09T03:27:23;10.70;99.90
52621;DHT22;38515;53.160;6.990;2022-11-09T03:29:49;10.70;99.90
52621;DHT22;38515;53.160;6.990;2022-11-09T03:32:15;10.70;99.90
52621;DHT22;38515;53.160;6.990;2022-11-09T03:34:41;10.70;99.90
52621;DHT22;38515;53.160;6.990;2022-11-09T03:37:07;10.70;99.90
52621;DHT22;38515;53.160;6.990;2022-11-09T03:39:33;10.70;99.90
52621;DHT22;38515;53.160;6.990;2022-11-09T03:41:59;10.70;99.90
52621;DHT22;38515;53.160;6.990;2022-11-09T03:44:24;10.60;99.90
52621;DHT22;38515;53.160;6.990;2022-11-09T03:46:50;10.60;99.90
52621;DHT22;38515;53.160;6.990;2022-11-09T03:49:16;10.60;99.90
52621;DHT22;38515;53.160;6.990;2022-11-09T03:51:42;10.60;99.90
52621;DHT22;38515;53.160;6.990;2022-11-09T03:54:08;10.60;99.90
52621;DHT22;38515;53.160;6.990;2022-11-09T03:56:34;10.60;99.90
52621;DHT22;38515;53.160;6.990;2022-11-09T03:58:59;10.60;99.90
52621;DHT22;38515;53.160;6.990;2022-11-09T04:01:25;10.60;99.90
52621;DHT22;38515;53.160;6.990;2022-11-09T04:03:51;10.60;99.90
52621;DHT22;38515;53.160;6.990;2022-11-09T04:06:17;10.60;99.90
52621;DHT22;38515;53.160;6.990;2022-11-09T04:08:43;10.50;99.90
52621;DHT22;38515;53.160;6.990;2022-11-09T04:11:08;10.60;99.90
52621;DHT22;38515;53.160;6.990;2022-11-09T04:13:34;10.60;99.90
52621;DHT22;38515;53.160;6.990;2022-11-09T04:16:00;10.50;99.90
52621;DHT22;38515;53.160;6.990;2022-11-09T04:18:26;10.50;99.90
52621;DHT22;38515;53.160;6.990;2022-11-09T04:20:52;10.50;99.90
52621;DHT22;38515;53.160;6.990;2022-11-09T04:23:17;10.50;99.90
52621;DHT22;38515;53.160;6.990;2022-11-09T04:25:43;10.50;99.90
52621;DHT22;38515;53.160;6.990;2022-11-09T04:28:10;10.50;99.90
52621;DHT22;38515;53.160;6.990;2022-11-09T04:30:37;10.50;99.90
52621;DHT22;38515;53.160;6.990;2022-11-09T04:33:03;10.60;99.90
52621;DHT22;38515;53.160;6.990;2022-11-09T04:35:30;10.50;99.90
52621;DHT22;38515;53.160;6.990;2022-11-09T04:38:03;10.50;99.90
52621;DHT22;38515;53.160;6.990;2022-11-09T04:40:31;10.50;99.90
52621;DHT22;38515;53.160;6.990;2022-11-09T04:43:02;10.50;99.90
52621;DHT22;38515;53.160;6.990;2022-11-09T04:45:28;10.50;99.90
52621;DHT22;38515;53.160;6.990;2022-11-09T04:47:58;10.50;99.90
52621;DHT22;38515;53.160;6.990;2022-11-09T04:50:25;10.40;99.90
52621;DHT22;38515;53.160;6.990;2022-11-09T04:52:51;10.30;99.90
52621;DHT22;38515;53.160;6.990;2022-11-09T04:55:17;10.30;99.90
52621;DHT22;38515;53.160;6.990;2022-11-09T04:57:43;10.30;99.90
52621;DHT22;38515;53.160;6.990;2022-11-09T05:00:09;10.20;99.90
52621;DHT22;38515;53.160;6.990;2022-11-09T05:02:35;10.30;99.90
52621;DHT22;38515;53.160;6.990;2022-11-09T05:05:01;10.20;99.90
52621;DHT22;38515;53.160;6.990;2022-11-09T05:07:26;10.20;99.90
52621;DHT22;38515;53.160;6.990;2022-11-09T05:09:52;10.20;99.90
52621;DHT22;38515;53.160;6.990;2022-11-09T05:12:18;10.30;99.90
52621;DHT22;38515;53.160;6.990;2022-11-09T05:14:44;10.40;99.90
52621;DHT22;38515;53.160;6.990;2022-11-09T05:17:10;10.40;99.90
52621;DHT22;38515;53.160;6.990;2022-11-09T05:19:35;10.50;99.90
52621;DHT22;38515;53.160;6.990;2022-11-09T05:22:01;10.60;99.90
52621;DHT22;38515;53.160;6.990;2022-11-09T05:24:47;10.70;99.90
52621;DHT22;38515;53.160;6.990;2022-11-09T05:27:13;10.70;99.90
52621;DHT22;38515;53.160;6.990;2022-11-09T05:29:38;10.70;99.90
52621;DHT22;38515;53.160;6.990;2022-11-09T05:32:04;10.70;99.90
52621;DHT22;38515;53.160;6.990;2022-11-09T05:34:30;10.70;99.90
52621;DHT22;38515;53.160;6.990;2022-11-09T05:36:56;10.70;99.90
52621;DHT22;38515;53.160;6.990;2022-11-09T05:39:22;10.70;99.90
52621;DHT22;38515;53.160;6.990;2022-11-09T05:41:48;10.70;99.90
52621;DHT22;38515;53.160;6.990;2022-11-09T05:44:13;10.70;99.90
52621;DHT22;38515;53.160;6.990;2022-11-09T05:46:39;10.70;99.90
52621;DHT22;38515;53.160;6.990;2022-11-09T05:49:05;10.70;99.90
52621;DHT22;38515;53.160;6.990;2022-11-09T05:51:31;10.70;99.90
52621;DHT22;38515;53.160;6.990;2022-11-09T05:53:56;10.70;99.90
52621;DHT22;38515;53.160;6.990;2022-11-09T05:56:22;10.80;99.90
52621;DHT22;38515;53.160;6.990;2022-11-09T05:58:48;10.90;99.90
52621;DHT22;38515;53.160;6.990;2022-11-09T06:01:15;10.90;99.90
52621;DHT22;38515;53.160;6.990;2022-11-09T06:03:43;10.90;99.90
52621;DHT22;38515;53.160;6.990;2022-11-09T06:06:11;10.90;99.90
52621;DHT22;38515;53.160;6.990;2022-11-09T06:08:37;10.90;99.90
52621;DHT22;38515;53.160;6.990;2022-11-09T06:11:06;10.90;99.90
52621;DHT22;38515;53.160;6.990;2022-11-09T06:13:33;10.80;99.90
52621;DHT22;38515;53.160;6.990;2022-11-09T06:16:00;10.90;99.90
52621;DHT22;38515;53.160;6.990;2022-11-09T06:18:28;10.90;99.90
52621;DHT22;38515;53.160;6.990;2022-11-09T06:20:56;10.90;99.90
52621;DHT22;38515;53.160;6.990;2022-11-09T06:23:23;10.90;99.90
52621;DHT22;38515;53.160;6.990;2022-11-09T06:25:51;10.90;99.90
52621;DHT22;38515;53.160;6.990;2022-11-09T06:28:17;10.90;99.90
52621;DHT22;38515;53.160;6.990;2022-11-09T06:30:43;10.90;99.90
52621;DHT22;38515;53.160;6.990;2022-11-09T06:33:09;10.80;99.90
52621;DHT22;38515;53.160;6.990;2022-11-09T06:35:35;10.80;99.90
52621;DHT22;38515;53.160;6.990;2022-11-09T06:38:01;10.80;99.90
52621;DHT22;38515;53.160;6.990;2022-11-09T06:40:27;10.70;99.90
52621;DHT22;38515;53.160;6.990;2022-11-09T06:42:58;10.70;99.90
52621;DHT22;38515;53.160;6.990;2022-11-09T06:45:26;10.60;99.90
52621;DHT22;38515;53.160;6.990;2022-11-09T06:47:57;10.50;99.90
52621;DHT22;38515;53.160;6.990;2022-11-09T06:50:24;10.50;99.90
52621;DHT22;38515;53.160;6.990;2022-11-09T06:52:55;10.50;99.90
52621;DHT22;38515;53.160;6.990;2022-11-09T06:55:21;10.50;99.90
52621;DHT22;38515;53.160;6.990;2022-11-09T06:57:47;10.50;99.90
52621;DHT22;38515;53.160;6.990;2022-11-09T07:00:13;10.50;99.90
52621;DHT22;38515;53.160;6.990;2022-11-09T07:02:40;10.50;99.90
52621;DHT22;38515;53.160;6.990;2022-11-09T07:05:06;10.50;99.90
52621;DHT22;38515;53.160;6.990;2022-11-09T07:07:33;10.50;99.90
52621;DHT22;38515;53.160;6.990;2022-11-09T07:09:58;10.50;99.90
52621;DHT22;38515;53.160;6.990;2022-11-09T07:12:25;10.50;99.90
52621;DHT22;38515;53.160;6.990;2022-11-09T07:14:50;10.50;99.90
52621;DHT22;38515;53.160;6.990;2022-11-09T07:17:16;10.50;99.90
52621;DHT22;38515;53.160;6.990;2022-11-09T07:19:42;10.60;99.90
52621;DHT22;38515;53.160;6.990;2022-11-09T07:22:08;10.60;99.90
52621;DHT22;38515;53.160;6.990;2022-11-09T07:24:34;10.60;99.90
52621;DHT22;38515;53.160;6.990;2022-11-09T07:26:59;10.40;99.90
52621;DHT22;38515;53.160;6.990;2022-11-09T07:29:26;10.60;99.90
52621;DHT22;38515;53.160;6.990;2022-11-09T07:31:51;10.70;99.90
52621;DHT22;38515;53.160;6.990;2022-11-09T07:34:17;10.70;99.90
52621;DHT22;38515;53.160;6.990;2022-11-09T07:36:43;10.80;99.90
52621;DHT22;38515;53.160;6.990;2022-11-09T07:39:09;10.80;99.90
52621;DHT22;38515;53.160;6.990;2022-11-09T07:41:35;10.90;99.90
52621;DHT22;38515;53.160;6.990;2022-11-09T07:44:01;11.00;99.90
52621;DHT22;38515;53.160;6.990;2022-11-09T07:46:27;11.10;99.90
52621;DHT22;38515;53.160;6.990;2022-11-09T07:48:53;11.20;99.90
52621;DHT22;38515;53.160;6.990;2022-11-09T07:51:19;11.30;99.90
52621;DHT22;38515;53.160;6.990;2022-11-09T07:53:45;11.50;99.90
52621;DHT22;38515;53.160;6.990;2022-11-09T07:56:11;11.80;99.90
52621;DHT22;38515;53.160;6.990;2022-11-09T07:58:37;12.00;99.90
52621;DHT22;38515;53.160;6.990;2022-11-09T08:01:10;12.10;99.90
52621;DHT22;38515;53.160;6.990;2022-11-09T08:03:36;12.10;99.90
52621;DHT22;38515;53.160;6.990;2022-11-09T08:06:02;12.10;99.90
52621;DHT22;38515;53.160;6.990;2022-11-09T08:08:28;12.00;99.90
52621;DHT22;38515;53.160;6.990;2022-11-09T08:10:56;12.10;99.90
52621;DHT22;38515;53.160;6.990;2022-11-09T08:13:22;12.30;99.90
52621;DHT22;38515;53.160;6.990;2022-11-09T08:15:47;12.50;99.90
52621;DHT22;38515;53.160;6.990;2022-11-09T08:18:16;12.60;99.90
52621;DHT22;38515;53.160;6.990;2022-11-09T08:20:43;12.80;99.90
52621;DHT22;38515;53.160;6.990;2022-11-09T08:23:11;12.90;99.90
52621;DHT22;38515;53.160;6.990;2022-11-09T08:25:37;13.10;99.90
52621;DHT22;38515;53.160;6.990;2022-11-09T08:28:04;13.20;99.90
52621;DHT22;38515;53.160;6.990;2022-11-09T08:30:30;13.20;99.90
52621;DHT22;38515;53.160;6.990;2022-11-09T08:32:58;13.20;99.90
52621;DHT22;38515;53.160;6.990;2022-11-09T08:35:24;13.20;99.90
52621;DHT22;38515;53.160;6.990;2022-11-09T08:37:51;13.30;99.90
52621;DHT22;38515;53.160;6.990;2022-11-09T08:40:20;13.40;99.90
52621;DHT22;38515;53.160;6.990;2022-11-09T08:42:46;13.40;99.90
52621;DHT22;38515;53.160;6.990;2022-11-09T08:45:13;13.50;99.90
52621;DHT22;38515;53.160;6.990;2022-11-09T08:47:39;13.70;99.90
52621;DHT22;38515;53.160;6.990;2022-11-09T08:50:07;13.80;99.90
52621;DHT22;38515;53.160;6.990;2022-11-09T08:52:34;13.90;99.90
52621;DHT22;38515;53.160;6.990;2022-11-09T08:55:00;14.00;99.90
52621;DHT22;38515;53.160;6.990;2022-11-09T08:57:26;14.10;99.90
52621;DHT22;38515;53.160;6.990;2022-11-09T08:59:52;14.30;99.90
52621;DHT22;38515;53.160;6.990;2022-11-09T09:02:18;14.30;99.90
52621;DHT22;38515;53.160;6.990;2022-11-09T09:04:45;14.30;99.90
52621;DHT22;38515;53.160;6.990;2022-11-09T09:07:11;14.30;99.90
52621;DHT22;38515;53.160;6.990;2022-11-09T09:09:38;14.30;99.90
52621;DHT22;38515;53.160;6.990;2022-11-09T09:12:05;14.40;99.90
52621;DHT22;38515;53.160;6.990;2022-11-09T09:14:31;14.40;99.90
52621;DHT22;38515;53.160;6.990;2022-11-09T09:16:57;14.50;99.90
52621;DHT22;38515;53.160;6.990;2022-11-09T09:19:23;14.50;99.90
52621;DHT22;38515;53.160;6.990;2022-11-09T09:21:49;14.50;99.90
52621;DHT22;38515;53.160;6.990;2022-11-09T09:24:15;14.50;99.90
52621;DHT22;38515;53.160;6.990;2022-11-09T09:26:42;14.50;99.90
52621;DHT22;38515;53.160;6.990;2022-11-09T09:29:08;14.60;99.90
52621;DHT22;38515;53.160;6.990;2022-11-09T09:31:36;14.60;99.90
52621;DHT22;38515;53.160;6.990;2022-11-09T09:34:02;14.60;99.90
52621;DHT22;38515;53.160;6.990;2022-11-09T09:36:28;14.70;99.90
52621;DHT22;38515;53.160;6.990;2022-11-09T09:38:54;14.70;99.90
52621;DHT22;38515;53.160;6.990;2022-11-09T09:43:54;14.80;99.90
52621;DHT22;38515;53.160;6.990;2022-11-09T09:48:57;14.80;99.90
52621;DHT22;38515;53.160;6.990;2022-11-09T09:54:11;14.80;99.90
52621;DHT22;38515;53.160;6.990;2022-11-09T09:56:44;14.70;99.90
52621;DHT22;38515;53.160;6.990;2022-11-09T10:01:47;14.50;99.90
52621;DHT22;38515;53.160;6.990;2022-11-09T10:04:22;14.40;99.90
52621;DHT22;38515;53.160;6.990;2022-11-09T10:09:18;14.30;99.90
52621;DHT22;38515;53.160;6.990;2022-11-09T10:23:28;14.50;99.90
52621;DHT22;38515;53.160;6.990;2022-11-09T10:25:37;14.40;99.90
52621;DHT22;38515;53.160;6.990;2022-11-09T10:28:09;14.50;99.90
52621;DHT22;38515;53.160;6.990;2022-11-09T10:30:36;14.40;99.90
52621;DHT22;38515;53.160;6.990;2022-11-09T10:33:14;14.40;99.90
52621;DHT22;38515;53.160;6.990;2022-11-09T10:38:44;14.40;99.90
52621;DHT22;38515;53.160;6.990;2022-11-09T10:43:49;14.40;99.90
52621;DHT22;38515;53.160;6.990;2022-11-09T10:46:15;14.40;99.90
52621;DHT22;38515;53.160;6.990;2022-11-09T10:48:42;14.40;99.90
52621;DHT22;38515;53.160;6.990;2022-11-09T10:51:32;14.30;99.90
52621;DHT22;38515;53.160;6.990;2022-11-09T10:57:21;14.30;99.90
52621;DHT22;38515;53.160;6.990;2022-11-09T10:59:58;14.40;99.90
52621;DHT22;38515;53.160;6.990;2022-11-09T11:07:44;14.40;99.90
52621;DHT22;38515;53.160;6.990;2022-11-09T11:12:36;14.20;99.90
52621;DHT22;38515;53.160;6.990;2022-11-09T11:15:02;14.20;99.90
52621;DHT22;38515;53.160;6.990;2022-11-09T11:17:36;14.10;99.90
52621;DHT22;38515;53.160;6.990;2022-11-09T11:20:34;14.20;99.90
52621;DHT22;38515;53.160;6.990;2022-11-09T11:23:12;14.20;99.90
52621;DHT22;38515;53.160;6.990;2022-11-09T11:31:03;14.20;99.90
52621;DHT22;38515;53.160;6.990;2022-11-09T11:33:31;14.20;99.90
52621;DHT22;38515;53.160;6.990;2022-11-09T11:39:01;14.40;99.90
52621;DHT22;38515;53.160;6.990;2022-11-09T11:52:46;14.10;99.90
52621;DHT22;38515;53.160;6.990;2022-11-09T11:55:31;14.00;99.90
52621;DHT22;38515;53.160;6.990;2022-11-09T12:01:49;14.00;99.90
52621;DHT22;38515;53.160;6.990;2022-11-09T12:03:55;13.90;99.90
52621;DHT22;38515;53.160;6.990;2022-11-09T12:18:04;13.80;99.90
52621;DHT22;38515;53.160;6.990;2022-11-09T12:29:28;13.80;99.90
52621;DHT22;38515;53.160;6.990;2022-11-09T12:37:29;13.70;99.90
52621;DHT22;38515;53.160;6.990;2022-11-09T12:43:20;13.60;99.90
52621;DHT22;38515;53.160;6.990;2022-11-09T12:47:52;13.60;99.90
52621;DHT22;38515;53.160;6.990;2022-11-09T12:50:21;13.70;99.90
52621;DHT22;38515;53.160;6.990;2022-11-09T12:52:49;13.70;99.90
52621;DHT22;38515;53.160;6.990;2022-11-09T12:58:30;13.60;99.90
52621;DHT22;38515;53.160;6.990;2022-11-09T13:01:00;13.60;99.90
52621;DHT22;38515;53.160;6.990;2022-11-09T13:03:29;13.60;99.90
52621;DHT22;38515;53.160;6.990;2022-11-09T13:06:12;13.70;99.90
52621;DHT22;38515;53.160;6.990;2022-11-09T13:08:39;13.70;99.90
52621;DHT22;38515;53.160;6.990;2022-11-09T13:11:08;13.70;99.90
52621;DHT22;38515;53.160;6.990;2022-11-09T13:13:34;13.70;99.90
52621;DHT22;38515;53.160;6.990;2022-11-09T13:16:09;13.60;99.90
52621;DHT22;38515;53.160;6.990;2022-11-09T13:23:46;13.30;99.90
52621;DHT22;38515;53.160;6.990;2022-11-09T13:37:52;13.10;99.90
52621;DHT22;38515;53.160;6.990;2022-11-09T13:48:02;12.70;99.90
52621;DHT22;38515;53.160;6.990;2022-11-09T13:50:30;12.60;99.90
52621;DHT22;38515;53.160;6.990;2022-11-09T13:53:02;12.60;99.90
52621;DHT22;38515;53.160;6.990;2022-11-09T13:58:00;12.70;99.90
52621;DHT22;38515;53.160;6.990;2022-11-09T14:00:26;12.80;99.90
52621;DHT22;38515;53.160;6.990;2022-11-09T14:02:58;12.90;99.90
52621;DHT22;38515;53.160;6.990;2022-11-09T14:05:26;13.00;99.90
52621;DHT22;38515;53.160;6.990;2022-11-09T14:07:53;13.20;99.90
52621;DHT22;38515;53.160;6.990;2022-11-09T14:13:30;13.20;99.90
52621;DHT22;38515;53.160;6.990;2022-11-09T14:16:27;13.20;99.90
52621;DHT22;38515;53.160;6.990;2022-11-09T14:19:10;13.20;99.90
52621;DHT22;38515;53.160;6.990;2022-11-09T14:21:42;13.20;99.90
52621;DHT22;38515;53.160;6.990;2022-11-09T14:24:19;13.10;99.90
52621;DHT22;38515;53.160;6.990;2022-11-09T14:29:35;13.10;99.90
52621;DHT22;38515;53.160;6.990;2022-11-09T14:32:24;13.10;99.90
52621;DHT22;38515;53.160;6.990;2022-11-09T14:34:50;13.10;99.90
52621;DHT22;38515;53.160;6.990;2022-11-09T14:37:17;13.10;99.90
52621;DHT22;38515;53.160;6.990;2022-11-09T14:39:48;13.10;99.90
52621;DHT22;38515;53.160;6.990;2022-11-09T14:42:19;13.10;99.90
52621;DHT22;38515;53.160;6.990;2022-11-09T14:44:46;13.00;99.90
52621;DHT22;38515;53.160;6.990;2022-11-09T14:47:15;12.90;99.90
52621;DHT22;38515;53.160;6.990;2022-11-09T14:49:42;12.80;99.90
52621;DHT22;38515;53.160;6.990;2022-11-09T14:52:16;12.80;99.90
52621;DHT22;38515;53.160;6.990;2022-11-09T14:54:43;12.70;99.90
52621;DHT22;38515;53.160;6.990;2022-11-09T14:57:14;12.70;99.90
52621;DHT22;38515;53.160;6.990;2022-11-09T14:59:43;12.70;99.90
52621;DHT22;38515;53.160;6.990;2022-11-09T15:02:12;12.70;99.90
52621;DHT22;38515;53.160;6.990;2022-11-09T15:05:03;12.60;99.90
52621;DHT22;38515;53.160;6.990;2022-11-09T15:07:32;12.50;99.90
52621;DHT22;38515;53.160;6.990;2022-11-09T15:10:04;11.90;99.90
52621;DHT22;38515;53.160;6.990;2022-11-09T15:12:31;12.20;99.90
52621;DHT22;38515;53.160;6.990;2022-11-09T15:15:04;12.10;99.90
52621;DHT22;38515;53.160;6.990;2022-11-09T15:17:43;12.00;99.90
52621;DHT22;38515;53.160;6.990;2022-11-09T15:22:54;11.80;99.90
52621;DHT22;38515;53.160;6.990;2022-11-09T15:25:27;11.70;99.90
52621;DHT22;38515;53.160;6.990;2022-11-09T15:28:16;11.60;99.90
52621;DHT22;38515;53.160;6.990;2022-11-09T15:35:49;11.30;99.90
52621;DHT22;38515;53.160;6.990;2022-11-09T15:40:55;11.20;99.90
52621;DHT22;38515;53.160;6.990;2022-11-09T15:43:22;11.10;99.90
52621;DHT22;38515;53.160;6.990;2022-11-09T15:45:48;11.00;99.90
52621;DHT22;38515;53.160;6.990;2022-11-09T15:48:14;11.00;99.90
52621;DHT22;38515;53.160;6.990;2022-11-09T15:50:40;10.90;99.90
52621;DHT22;38515;53.160;6.990;2022-11-09T15:53:06;10.90;99.90
52621;DHT22;38515;53.160;6.990;2022-11-09T15:55:32;10.10;99.90
52621;DHT22;38515;53.160;6.990;2022-11-09T15:57:58;10.80;99.90
52621;DHT22;38515;53.160;6.990;2022-11-09T16:00:24;10.70;99.90
52621;DHT22;38515;53.160;6.990;2022-11-09T16:02:50;10.80;99.90
52621;DHT22;38515;53.160;6.990;2022-11-09T16:05:16;10.70;99.90
52621;DHT22;38515;53.160;6.990;2022-11-09T16:07:50;10.70;99.90
52621;DHT22;38515;53.160;6.990;2022-11-09T16:10:17;10.70;99.90
52621;DHT22;38515;53.160;6.990;2022-11-09T16:12:50;10.70;99.90
52621;DHT22;38515;53.160;6.990;2022-11-09T16:15:18;10.70;99.90
52621;DHT22;38515;53.160;6.990;2022-11-09T16:17:46;10.70;99.90
52621;DHT22;38515;53.160;6.990;2022-11-09T16:20:16;10.70;99.90
52621;DHT22;38515;53.160;6.990;2022-11-09T16:22:42;10.70;99.90
52621;DHT22;38515;53.160;6.990;2022-11-09T16:25:08;10.70;99.90
52621;DHT22;38515;53.160;6.990;2022-11-09T16:27:35;10.70;99.90
52621;DHT22;38515;53.160;6.990;2022-11-09T16:30:01;10.70;99.90
52621;DHT22;38515;53.160;6.990;2022-11-09T16:32:27;10.70;99.90
52621;DHT22;38515;53.160;6.990;2022-11-09T16:34:53;10.70;99.90
52621;DHT22;38515;53.160;6.990;2022-11-09T16:37:20;10.70;99.90
52621;DHT22;38515;53.160;6.990;2022-11-09T16:39:47;10.70;99.90
52621;DHT22;38515;53.160;6.990;2022-11-09T16:42:14;10.70;99.90
52621;DHT22;38515;53.160;6.990;2022-11-09T16:44:43;10.70;99.90
52621;DHT22;38515;53.160;6.990;2022-11-09T16:47:12;10.70;99.90
52621;DHT22;38515;53.160;6.990;2022-11-09T16:49:41;10.80;99.90
52621;DHT22;38515;53.160;6.990;2022-11-09T16:52:06;10.90;99.90
52621;DHT22;38515;53.160;6.990;2022-11-09T16:54:34;10.90;99.90
52621;DHT22;38515;53.160;6.990;2022-11-09T16:57:00;10.90;99.90
52621;DHT22;38515;53.160;6.990;2022-11-09T16:59:26;11.00;99.90
52621;DHT22;38515;53.160;6.990;2022-11-09T17:01:57;11.00;99.90
52621;DHT22;38515;53.160;6.990;2022-11-09T17:04:24;11.00;99.90
52621;DHT22;38515;53.160;6.990;2022-11-09T17:06:51;11.00;99.90
52621;DHT22;38515;53.160;6.990;2022-11-09T17:09:17;11.00;99.90
52621;DHT22;38515;53.160;6.990;2022-11-09T17:11:43;10.90;99.90
52621;DHT22;38515;53.160;6.990;2022-11-09T17:14:09;10.90;99.90
52621;DHT22;38515;53.160;6.990;2022-11-09T17:16:36;10.90;99.90
52621;DHT22;38515;53.160;6.990;2022-11-09T17:19:02;10.80;99.90
52621;DHT22;38515;53.160;6.990;2022-11-09T17:21:28;10.80;99.90
52621;DHT22;38515;53.160;6.990;2022-11-09T17:23:58;10.80;99.90
52621;DHT22;38515;53.160;6.990;2022-11-09T17:26:24;10.80;99.90
52621;DHT22;38515;53.160;6.990;2022-11-09T17:28:50;10.80;99.90
52621;DHT22;38515;53.160;6.990;2022-11-09T17:31:20;10.80;99.90
52621;DHT22;38515;53.160;6.990;2022-11-09T17:33:46;10.80;99.90
52621;DHT22;38515;53.160;6.990;2022-11-09T17:36:14;10.80;99.90
52621;DHT22;38515;53.160;6.990;2022-11-09T17:38:41;10.80;99.90
52621;DHT22;38515;53.160;6.990;2022-11-09T17:41:19;10.90;99.90
52621;DHT22;38515;53.160;6.990;2022-11-09T17:43:45;10.90;99.90
52621;DHT22;38515;53.160;6.990;2022-11-09T17:46:17;10.90;99.90
52621;DHT22;38515;53.160;6.990;2022-11-09T17:48:45;10.90;99.90
52621;DHT22;38515;53.160;6.990;2022-11-09T17:51:12;10.80;99.90
52621;DHT22;38515;53.160;6.990;2022-11-09T17:53:38;10.80;99.90
52621;DHT22;38515;53.160;6.990;2022-11-09T17:56:05;10.90;99.90
52621;DHT22;38515;53.160;6.990;2022-11-09T17:58:33;10.80;99.90
52621;DHT22;38515;53.160;6.990;2022-11-09T18:01:15;10.80;99.90